Flight Track Log - Related Links

Times and Time Zones

All times are in EDT time to prevent confusion due to time zone crossing. See the ASQ4976 flight status page for this flight to view local times or setup timezone preferences in your user account.

Time Position Orientation Groundspeed Altitude Reporting Facility
EDT Latitude Longitude Course Direction KTS MPH feet Rate Location/Type
Thu 09:52:10 AM 33.6500 -84.4833 301° West 176 203 2,800  Level Atlanta TRACON
Thu 09:53:10 AM 33.6833 -84.5500 301° West 253 291 4,500 2,200 Climbing Atlanta TRACON
Thu 09:54:10 AM 33.7500 -84.5833 337° Northwest 276 318 7,200 1,933 Climbing Atlanta TRACON
Thu 09:56:10 AM 33.8933 -84.5419 13° North 294 338 10,300 1,900 Climbing Atlanta Center
Thu 09:57:10 AM 33.9833 -84.4672 35° Northeast 328 377 12,900 2,050 Climbing Atlanta Center
Thu 09:58:10 AM 34.0756 -84.4175 24° Northeast 350 403 14,400 2,000 Climbing Atlanta Center
Thu 09:59:10 AM 34.1675 -84.3550 29° Northeast 359 413 16,900 2,050 Climbing Atlanta Center
Thu 10:00:10 AM 34.2636 -84.2978 26° Northeast 370 426 18,500 1,700 Climbing Atlanta Center
Thu 10:01:10 AM 34.3658 -84.2653 15° North 375 432 20,300 1,700 Climbing Atlanta Center
Thu 10:02:10 AM 34.4725 -84.2403 11° North 384 442 21,900 1,400 Climbing Atlanta Center
Thu 10:03:10 AM 34.5706 -84.2178 11° North 395 455 23,100 1,400 Climbing Atlanta Center
Thu 10:04:10 AM 34.6853 -84.1903 11° North 395 455 24,700 1,500 Climbing Atlanta Center
Thu 10:05:10 AM 34.7981 -84.1628 11° North 389 448 26,100 1,200 Climbing Atlanta Center
Thu 10:06:10 AM 34.9128 -84.1375 10° North 399 459 27,100 1,000 Climbing Atlanta Center
Thu 10:07:10 AM 35.0297 -84.1097 11° North 409 471 28,100 1,000 Climbing Atlanta Center
Thu 10:08:10 AM 35.1444 -84.0819 11° North 420 483 29,100 1,100 Climbing Atlanta Center
Thu 10:09:10 AM 35.2614 -84.0514 12° North 420 483 30,300 1,200 Climbing Atlanta Center
Thu 10:10:10 AM 35.3761 -84.0233 11° North 420 483 31,500 1,200 Climbing Atlanta Center
Thu 10:11:10 AM 35.4825 -83.9953 12° North 426 490 32,700 750 Climbing Atlanta Center
Thu 10:12:10 AM 35.5847 -83.9264 29° Northeast 416 479 33,000 600 Climbing Atlanta Center
Thu 10:13:10 AM 35.6889 -83.8522 30° Northeast 416 479 33,900 500 Climbing Atlanta Center
Thu 10:14:10 AM 35.7931 -83.7750 31° Northeast 426 490 34,000 550 Climbing Atlanta Center
Thu 10:15:10 AM 35.8950 -83.6953 32° Northeast 432 497 35,000 1,000 Climbing Atlanta Center
Thu 10:16:10 AM 35.9969 -83.6203 31° Northeast 426 490 36,000 1,000 Climbing Atlanta Center
Thu 10:17:10 AM 36.1053 -83.5375 32° Northeast 421 484 37,000 500 Climbing Atlanta Center
Thu 10:18:10 AM 36.1925 -83.4703 32° Northeast 416 479 37,000  Level Atlanta Center
Thu 10:20:23 AM 36.4203 -83.2950 32° Northeast 417 480 37,000  Level Indianapolis Center
Thu 10:21:25 AM 36.5183 -83.2206 31° Northeast 414 476 37,000  Level Indianapolis Center
Thu 10:22:27 AM 36.6167 -83.1458 31° Northeast 414 476 37,000  Level Indianapolis Center
Thu 10:23:29 AM 36.7131 -83.0700 32° Northeast 411 473 37,000  Level Indianapolis Center
Thu 10:24:31 AM 36.8092 -82.9958 32° Northeast 407 468 37,000  Level Indianapolis Center
Thu 10:25:33 AM 36.9181 -82.9158 30° Northeast 413 475 37,000  Level Indianapolis Center
Thu 10:26:35 AM 37.0106 -82.8394 33° Northeast 412 474 37,000  Level Indianapolis Center
Thu 10:27:37 AM 37.1058 -82.7653 32° Northeast 403 464 37,000  Level Indianapolis Center
Thu 10:28:39 AM 37.2172 -82.6775 32° Northeast 404 465 37,000  Level Indianapolis Center
Thu 10:29:41 AM 37.3119 -82.6033 32° Northeast 402 463 37,000  Level Indianapolis Center
Thu 10:30:43 AM 37.4075 -82.5292 32° Northeast 403 464 37,000  Level Indianapolis Center
Thu 10:31:45 AM 37.5017 -82.4547 32° Northeast 399 459 37,000  Level Indianapolis Center
Thu 10:32:47 AM 37.5958 -82.3794 32° Northeast 399 459 37,000  Level Indianapolis Center
Thu 10:33:49 AM 37.7069 -82.2906 32° Northeast 403 464 37,000  Level Indianapolis Center
Thu 10:34:52 AM 37.8014 -82.2147 32° Northeast 403 464 37,000  Level Indianapolis Center
Thu 10:35:54 AM 37.8939 -82.1411 32° Northeast 410 472 37,000  Level Indianapolis Center
Thu 10:36:56 AM 37.9914 -82.0633 32° Northeast 414 476 37,000  Level Indianapolis Center
Thu 10:37:58 AM 38.0889 -81.9847 32° Northeast 415 478 37,000  Level Indianapolis Center
Thu 10:39:00 AM 38.2078 -81.8875 33° Northeast 422 486 37,000  Level Indianapolis Center
Thu 10:40:02 AM 38.3064 -81.8069 33° Northeast 423 487 37,000  Level Indianapolis Center
Thu 10:41:04 AM 38.3961 -81.7039 42° Northeast 441 507 37,000  Level Indianapolis Center
Thu 10:42:06 AM 38.4781 -81.5883 48° Northeast 444 511 37,000  Level Indianapolis Center
Thu 10:43:08 AM 38.5589 -81.4717 48° Northeast 445 512 37,000  Level Indianapolis Center
Thu 10:44:10 AM 38.6556 -81.3333 48° Northeast 445 512 37,000  Level Indianapolis Center
Thu 10:45:12 AM 38.7364 -81.2169 48° Northeast 444 511 37,000  Level Indianapolis Center
Thu 10:46:14 AM 38.8186 -81.0992 48° Northeast 445 512 37,000  Level Indianapolis Center
Thu 10:47:16 AM 38.9011 -80.9794 48° Northeast 449 517 37,000  Level Indianapolis Center
Thu 10:48:18 AM 38.9839 -80.8592 48° Northeast 452 520 37,000  Level Indianapolis Center
Thu 10:49:20 AM 39.0672 -80.7403 48° Northeast 449 517 37,000  Level Indianapolis Center
Thu 10:50:22 AM 39.1683 -80.5989 47° Northeast 447 514 37,000  Level Indianapolis Center
Thu 10:51:24 AM 39.2525 -80.4808 47° Northeast 446 513 37,000  Level Indianapolis Center
Thu 10:52:27 AM 39.3358 -80.3642 47° Northeast 443 510 37,000  Level Indianapolis Center
Thu 10:52:58 AM 39.3831 -80.3064 43° Northeast 438 504 37,000  Level Cleveland Center
Thu 10:53:58 AM 39.4642 -80.1878 48° Northeast 438 504 37,000  Level Cleveland Center
Thu 10:54:58 AM 39.5469 -80.0717 47° Northeast 438 504 37,000  Level Cleveland Center
Thu 10:55:58 AM 39.6297 -79.9497 49° Northeast 438 504 37,000  Level Cleveland Center
Thu 10:56:58 AM 39.7125 -79.8275 49° Northeast 438 504 37,000  Level Cleveland Center
Thu 10:57:58 AM 39.7928 -79.7078 49° Northeast 438 504 37,000  Level Cleveland Center
Thu 10:58:58 AM 39.8753 -79.5875 48° Northeast 438 504 37,000  Level Cleveland Center
Thu 10:59:58 AM 39.9656 -79.4508 49° Northeast 443 510 37,000  Level Cleveland Center
Thu 11:00:58 AM 40.0478 -79.3300 48° Northeast 438 504 37,000  Level Cleveland Center
Thu 11:01:58 AM 40.1278 -79.2064 50° Northeast 438 504 37,000  Level Cleveland Center
Thu 11:02:58 AM 40.2075 -79.0853 49° Northeast 438 504 37,000  Level Cleveland Center
Thu 11:03:58 AM 40.2911 -78.9608 49° Northeast 438 504 37,000  Level Cleveland Center
Thu 11:04:58 AM 40.3708 -78.8389 49° Northeast 438 504 37,000  Level Cleveland Center
Thu 11:05:58 AM 40.4522 -78.7142 49° Northeast 438 504 37,000  Level Cleveland Center
Thu 11:07:54 AM 40.6042 -78.4775 50° Northeast 453 521 37,000  Level New York Center
Thu 11:08:53 AM 40.6872 -78.3528 49° Northeast 453 521 37,000  Level New York Center
Thu 11:09:54 AM 40.7664 -78.2244 51° Northeast 453 521 37,000  Level New York Center
Thu 11:10:54 AM 40.8492 -78.0989 49° Northeast 447 514 37,000  Level New York Center
Thu 11:11:55 AM 40.9297 -77.9731 50° Northeast 447 514 37,000  Level New York Center
Thu 11:12:53 AM 41.0144 -77.8500 48° Northeast 452 520 37,000  Level New York Center
Thu 11:13:53 AM 41.0989 -77.7264 48° Northeast 457 526 37,000 -344 Level New York Center
Thu 11:14:55 AM 41.1853 -77.6031 47° Northeast 457 526 36,300 -1,008 Descending New York Center
Thu 11:15:52 AM 41.2694 -77.4789 48° Northeast 457 526 35,000 -1,729 Descending New York Center
Thu 11:16:53 AM 41.3533 -77.3544 48° Northeast 457 526 32,900 -2,033 Descending New York Center
Thu 11:17:53 AM 41.4328 -77.2350 48° Northeast 451 519 30,900 -1,900 Descending New York Center
Thu 11:18:53 AM 41.5100 -77.1178 49° Northeast 437 503 29,100 -942 Descending New York Center
Thu 11:19:54 AM 41.5936 -76.9953 48° Northeast 437 503 29,000 -49 Descending New York Center
Thu 11:20:55 AM 41.6681 -76.8856 48° Northeast 447 514 29,000 -303 Level New York Center
Thu 11:21:53 AM 41.7517 -76.7597 48° Northeast 442 509 28,400 -655 Descending New York Center
Thu 11:22:54 AM 41.8303 -76.6417 48° Northeast 442 509 27,700 -821 Descending New York Center
Thu 11:25:03 AM 42.0003 -76.3853 48° Northeast 448 516 25,800 -921 Descending Boston Center
Thu 11:26:03 AM 42.0775 -76.2642 49° Northeast 437 503 24,800 -900 Descending Boston Center
Thu 11:27:03 AM 42.1567 -76.1400 49° Northeast 437 503 24,000 -400 Descending Boston Center
Thu 11:28:03 AM 42.2114 -75.9919 63° Northeast 437 503 24,000  Level Boston Center
Thu 11:29:03 AM 42.2617 -75.8433 65° Northeast 432 497 24,000  Level Boston Center
Thu 11:30:03 AM 42.3189 -75.6750 65° Northeast 432 497 24,000  Level Boston Center
Thu 11:31:03 AM 42.3647 -75.5228 68° East 432 497 24,000  Level Boston Center
Thu 11:32:03 AM 42.4025 -75.3586 73° East 437 503 24,000 -750 Level Boston Center
Thu 11:33:03 AM 42.4419 -75.2031 71° East 442 509 22,500 -1,950 Descending Boston Center
Thu 11:34:03 AM 42.4953 -75.0589 63° Northeast 437 503 20,100 -2,400 Descending Boston Center
Thu 11:35:03 AM 42.5258 -74.9081 75° East 424 488 17,700 -2,460 Descending Boston Center
Thu 11:35:43 AM 42.5444 -74.8100 76° East 402 463 16,000 -2,300 Descending Boston Center
Thu 11:36:03 AM 42.5514 -74.7767 74° East 411 473 15,400 -2,500 Descending Boston Center
Thu 11:36:19 AM 42.5650 -74.7208 72° East 396 456 14,500 -2,600 Descending Boston Center
Thu 11:37:03 AM 42.5836 -74.6228 76° East 396 456 12,800 -2,361 Descending Boston Center
Thu 11:37:20 AM 42.5928 -74.5836 72° East 383 441 12,100 -2,100 Descending Boston Center
Thu 11:38:03 AM 42.6192 -74.5025 66° East 375 432 10,700 -1,800 Descending Boston Center
Thu 11:38:20 AM 42.6408 -74.4611 55° Northeast 351 404 10,300 -800 Descending Boston Center
Thu 11:39:03 AM 42.6775 -74.3917 54° Northeast 338 389 9,900 -885 Descending Boston Center
Thu 11:39:21 AM 42.6925 -74.3694 47° Northeast 292 336 9,400 -1,400 Descending Boston Center
Thu 11:40:03 AM 42.7206 -74.3139 55° Northeast 300 345 8,500 -1,600 Descending Boston Center
Thu 11:40:21 AM 42.7378 -74.2803 55° Northeast 279 321 7,800 -1,700 Descending Boston Center
Thu 11:41:03 AM 42.7700 -74.2164 55° Northeast 283 326 6,800 -1,475 Descending Boston Center
Thu 11:41:22 AM 42.7828 -74.1942 52° Northeast 274 315 6,300 -1,500 Descending Boston Center
Thu 11:42:03 AM 42.8086 -74.1439 55° Northeast 278 320 5,300 -1,574 Descending Boston Center
Thu 11:42:23 AM 42.8258 -74.1103 55° Northeast 265 305 4,700 -1,400 Descending Boston Center
Thu 11:43:03 AM 42.8514 -74.0658 52° Northeast 272 313 3,900 -1,400 Descending Boston Center
Thu 11:43:23 AM 42.8708 -74.0264 56° Northeast 265 305 3,300 -1,100 Descending Boston Center
Thu 11:44:03 AM 42.8839 -73.9731 72° East 257 296 2,800 -787 Descending Boston Center
Thu 11:44:24 AM 42.8886 -73.9306 81° East 255 293 2,500 -500 Descending Boston Center
Thu 11:45:03 AM 42.8894 -73.8739 89° East 244 281 2,300 -492 Descending Boston Center
Thu 11:45:25 AM 42.8942 -73.8372 80° East 237 273 2,000 -300 Descending Boston Center
Thu 11:46:03 AM 42.8653 -73.8111 146° Southeast 193 222 2,000  Level Boston Center
Thu 11:46:31 AM 42.8422 -73.8106 179° South 175 201 2,000  Level Boston Center
Thu 11:47:03 AM 42.8533 -73.7486 76° East 193 222 2,000 -787 Level Boston Center
Thu 11:47:32 AM 42.8006 -73.8097 220° Southwest 133 153 1,200 -1,067 Descending Boston Center
Thu 11:48:33 AM 42.7631 -73.8089 179° South 134 154 400 -787 Descending Boston Center

Login

Don't have an account? Register now (free) for customized features, flight alerts, and more!